Time;durP1;ratioP1;P1;durP2;ratioP2;P2;SDS_P1;SDS_P2;PMS_P1;PMS_P2;Temp;Humidity;BMP_temperature;BMP_pressure;BME280_temperature;BME280_humidity;BME280_pressure;Samples;Min_cycle;Max_cycle;Signal;HPM_P1;HPM_P2
2023/08/13 00:00:30;;;;;;;5.40;4.08;;;;;;;23.48;82.04;100605.95;5257448;54;1140987;-64
2023/08/13 00:05:37;;;;;;;7.97;3.67;;;;;;;23.47;82.52;100600.74;5214741;54;1138958;-64
2023/08/13 00:10:42;;;;;;;5.37;3.83;;;;;;;23.44;82.85;100597.92;5177853;54;1138667;-65
2023/08/13 00:15:48;;;;;;;7.80;3.95;;;;;;;23.35;83.00;100597.79;5169225;55;1138636;-65
2023/08/13 00:20:54;;;;;;;7.78;3.90;;;;;;;23.30;83.29;100594.02;5187923;55;1138838;-64
2023/08/13 00:25:59;;;;;;;8.88;4.30;;;;;;;23.20;83.88;100594.39;5240292;54;1138947;-64
2023/08/13 00:31:05;;;;;;;7.03;4.15;;;;;;;23.16;84.79;100591.77;5257582;54;1138859;-65
2023/08/13 00:36:10;;;;;;;9.68;4.33;;;;;;;23.14;85.50;100596.52;5277925;54;1138901;-64
2023/08/13 00:41:16;;;;;;;9.73;4.65;;;;;;;23.07;85.69;100604.56;5202656;54;1138718;-64
2023/08/13 00:46:23;;;;;;;7.12;3.77;;;;;;;23.04;86.41;100604.98;5253720;55;1138840;-66
2023/08/13 00:51:29;;;;;;;7.80;4.15;;;;;;;23.02;87.08;100598.95;5210984;54;1138777;-65
2023/08/13 00:56:36;;;;;;;6.87;4.70;;;;;;;23.10;87.85;100593.37;5175616;54;1138813;-65
2023/08/13 01:01:43;;;;;;;5.87;4.03;;;;;;;23.15;87.91;100592.80;5231595;55;1138677;-65
2023/08/13 01:07:14;;;;;;;6.58;4.22;;;;;;;23.05;87.97;100594.52;5221327;54;1138880;-63
2023/08/13 01:12:51;;;;;;;7.17;5.30;;;;;;;23.06;88.71;100587.25;5151550;54;1138700;-67
2023/08/13 01:18:01;;;;;;;9.18;5.22;;;;;;;23.05;89.17;100591.81;5263016;54;1138739;-64
2023/08/13 01:23:07;;;;;;;7.30;5.58;;;;;;;22.98;89.21;100594.14;5206635;54;1138692;-64
2023/08/13 01:28:38;;;;;;;9.28;5.90;;;;;;;22.83;88.79;100597.45;5189518;55;1138813;-65
2023/08/13 01:33:46;;;;;;;14.93;7.22;;;;;;;22.78;89.79;100599.39;5186407;55;1138654;-64
2023/08/13 01:38:54;;;;;;;12.07;8.00;;;;;;;22.52;89.25;100600.50;5219215;55;1140881;-65
2023/08/13 01:44:00;;;;;;;15.40;8.58;;;;;;;22.36;90.35;100601.61;5211121;55;1140585;-63
2023/08/13 01:49:06;;;;;;;8.25;5.78;;;;;;;22.32;91.24;100603.02;5278603;54;1140987;-65
2023/08/13 01:54:11;;;;;;;12.10;5.75;;;;;;;22.21;91.62;100606.23;5299507;54;1138805;-64
2023/08/13 01:59:17;;;;;;;8.70;6.15;;;;;;;22.19;92.62;100609.63;5278532;54;1140871;-64
2023/08/13 02:04:23;;;;;;;9.10;6.78;;;;;;;22.24;93.46;100607.20;5239369;54;1259787;-64
2023/08/13 02:09:29;;;;;;;12.58;5.35;;;;;;;22.29;93.74;100608.81;5200424;55;1138665;-64
2023/08/13 02:14:35;;;;;;;12.37;6.00;;;;;;;22.31;93.83;100608.91;5289423;54;1140938;-64
2023/08/13 02:19:41;;;;;;;6.30;5.00;;;;;;;22.20;93.11;100613.48;5271468;54;1141085;-64
2023/08/13 02:24:47;;;;;;;16.17;5.17;;;;;;;22.00;93.52;100617.30;5269968;54;1138631;-64
2023/08/13 02:29:53;;;;;;;7.65;4.25;;;;;;;21.88;94.29;100621.50;5300047;54;1140844;-65
2023/08/13 02:34:58;;;;;;;9.40;4.05;;;;;;;21.83;94.93;100625.30;5279569;54;1138825;-64
2023/08/13 02:40:06;;;;;;;10.18;4.86;;;;;;;21.77;95.18;100626.03;5268931;54;1138757;-65
2023/08/13 02:45:12;;;;;;;6.97;4.42;;;;;;;21.69;95.51;100626.96;5205823;55;1140955;-64
2023/08/13 02:50:18;;;;;;;12.58;4.87;;;;;;;21.55;95.61;100637.75;5189884;55;1139099;-65
2023/08/13 02:55:23;;;;;;;7.47;4.08;;;;;;;21.34;96.42;100638.53;5276511;54;1140735;-66
2023/08/13 03:00:29;;;;;;;8.00;3.90;;;;;;;21.19;97.64;100648.42;5279777;54;1138671;-64
2023/08/13 03:05:35;;;;;;;5.97;3.55;;;;;;;21.12;98.09;100652.34;5243968;55;1138955;-64
2023/08/13 03:10:40;;;;;;;5.07;4.10;;;;;;;21.06;98.71;100657.13;5249985;54;1138847;-65
2023/08/13 03:15:46;;;;;;;9.58;3.70;;;;;;;21.03;99.96;100661.02;5199430;55;1139013;-65
2023/08/13 03:20:52;;;;;;;4.12;3.40;;;;;;;21.01;100.00;100667.08;5210559;55;1138808;-64
2023/08/13 03:25:58;;;;;;;7.28;3.15;;;;;;;21.04;100.00;100663.20;5189472;54;1140921;-64
2023/08/13 03:31:04;;;;;;;7.65;3.37;;;;;;;21.11;100.00;100667.31;5171944;55;1140724;-64
2023/08/13 03:36:12;;;;;;;4.20;3.67;;;;;;;21.14;100.00;100673.17;5187824;55;1140774;-65
2023/08/13 03:41:17;;;;;;;6.00;4.08;;;;;;;21.13;100.00;100678.73;5164109;55;1140656;-64
2023/08/13 03:46:23;;;;;;;5.50;3.55;;;;;;;21.13;100.00;100678.73;5168758;55;1140934;-65
2023/08/13 03:51:29;;;;;;;4.03;3.67;;;;;;;21.12;100.00;100679.75;5169191;55;1143260;-63
2023/08/13 03:56:34;;;;;;;7.33;4.30;;;;;;;21.14;100.00;100685.78;5189434;55;1140777;-64
2023/08/13 04:01:40;;;;;;;5.03;3.47;;;;;;;21.11;100.00;100693.70;5168389;56;1140844;-63
2023/08/13 04:06:46;;;;;;;5.25;3.70;;;;;;;21.00;100.00;100699.02;5168150;55;1141044;-64
2023/08/13 04:11:52;;;;;;;6.08;4.00;;;;;;;21.00;100.00;100699.02;5229520;55;1140982;-64
2023/08/13 04:16:58;;;;;;;9.15;4.62;;;;;;;20.95;100.00;100697.89;5257385;54;1140782;-64
2023/08/13 04:22:04;;;;;;;5.05;4.47;;;;;;;20.89;100.00;100701.32;5257433;54;1141041;-64
2023/08/13 04:27:10;;;;;;;6.00;4.83;;;;;;;20.82;100.00;100704.39;5278095;55;1140686;-63
2023/08/13 04:32:16;;;;;;;4.60;4.00;;;;;;;20.74;100.00;100710.69;5270908;54;1140892;-63
2023/08/13 04:37:22;;;;;;;4.15;3.77;;;;;;;20.75;100.00;100710.18;5278736;54;1140917;-64
2023/08/13 04:42:28;;;;;;;5.78;4.22;;;;;;;20.71;100.00;100717.25;5278242;54;1140965;-66
2023/08/13 04:47:34;;;;;;;4.72;4.28;;;;;;;20.70;100.00;100720.12;5299671;54;1140943;-64
2023/08/13 04:52:41;;;;;;;4.65;4.25;;;;;;;20.68;100.00;100718.95;5278964;55;1140768;-65
2023/08/13 04:57:46;;;;;;;5.10;4.70;;;;;;;20.67;100.00;100720.47;5278945;54;1141079;-65
2023/08/13 05:02:52;;;;;;;4.70;4.28;;;;;;;20.65;100.00;100721.98;5285668;55;1140795;-66
2023/08/13 05:07:58;;;;;;;4.12;3.80;;;;;;;20.66;100.00;100729.04;5199516;55;1141412;-66
2023/08/13 05:13:04;;;;;;;6.30;4.03;;;;;;;20.74;100.00;100731.35;5248983;54;1140718;-66
2023/08/13 05:18:10;;;;;;;4.80;4.30;;;;;;;20.82;100.00;100731.27;5270543;54;1140920;-66
2023/08/13 05:23:16;;;;;;;5.42;4.37;;;;;;;20.91;100.00;100739.11;5200432;55;1140770;-66
2023/08/13 05:28:21;;;;;;;4.28;3.87;;;;;;;20.92;100.00;100746.16;5199013;55;1140819;-67
2023/08/13 05:33:28;;;;;;;4.10;3.70;;;;;;;20.91;100.00;100753.06;5230576;54;1141201;-65
2023/08/13 05:38:35;;;;;;;5.40;4.03;;;;;;;20.90;100.00;100753.57;5099488;56;1140781;-64
2023/08/13 05:43:42;;;;;;;5.07;4.57;;;;;;;21.05;100.00;100756.31;5059415;55;1140791;-64
2023/08/13 05:48:48;;;;;;;4.72;4.37;;;;;;;21.17;100.00;100764.77;5078398;56;1140891;-64
2023/08/13 05:53:54;;;;;;;5.85;4.37;;;;;;;21.37;100.00;100765.46;5115845;55;1140725;-64
2023/08/13 05:58:59;;;;;;;4.72;4.15;;;;;;;21.43;100.00;100767.08;5000345;57;1140981;-64
2023/08/13 06:04:06;;;;;;;4.20;3.90;;;;;;;21.51;100.00;100770.53;5033773;56;1141361;-64
2023/08/13 06:09:12;;;;;;;3.55;3.27;;;;;;;21.71;100.00;100775.68;5062347;56;1141433;-64
2023/08/13 06:14:18;;;;;;;4.05;3.12;;;;;;;21.85;100.00;100770.48;5155007;56;1140823;-64
2023/08/13 06:19:23;;;;;;;6.05;3.67;;;;;;;21.96;100.00;100787.03;5168314;55;1141056;-66
2023/08/13 06:24:29;;;;;;;3.08;2.80;;;;;;;22.05;100.00;100785.93;5084285;55;1140948;-68
2023/08/13 06:29:35;;;;;;;6.00;3.85;;;;;;;22.15;100.00;100790.22;5124666;56;1141039;-64
2023/08/13 06:34:40;;;;;;;3.20;2.90;;;;;;;22.30;100.00;100798.59;5082565;57;1140922;-65
2023/08/13 06:39:46;;;;;;;3.05;2.85;;;;;;;22.50;100.00;100805.55;5082546;56;1141174;-64
2023/08/13 06:44:52;;;;;;;2.60;2.50;;;;;;;22.67;100.00;100812.91;5102649;56;1140670;-63
2023/08/13 06:49:58;;;;;;;2.55;2.40;;;;;;;22.64;100.00;100814.62;5082482;56;1140896;-65
2023/08/13 06:55:03;;;;;;;3.83;3.05;;;;;;;22.67;100.00;100829.08;5082567;56;1140779;-64
2023/08/13 07:00:10;;;;;;;3.55;3.25;;;;;;;22.78;100.00;100832.14;5125306;55;1140856;-64
2023/08/13 07:05:16;;;;;;;3.37;2.95;;;;;;;22.85;100.00;100842.18;5072528;57;1140878;-64
2023/08/13 07:10:22;;;;;;;5.65;2.98;;;;;;;22.88;100.00;100851.24;5085989;56;1140904;-64
2023/08/13 07:15:27;;;;;;;3.77;3.50;;;;;;;22.83;100.00;100850.45;5000430;57;1141263;-64
2023/08/13 07:20:33;;;;;;;5.17;3.65;;;;;;;22.73;100.00;100868.27;5093242;55;1140850;-64
2023/08/13 07:25:39;;;;;;;4.00;3.70;;;;;;;22.57;100.00;100865.80;5066917;56;1140860;-64
2023/08/13 07:30:45;;;;;;;3.73;3.40;;;;;;;22.58;100.00;100869.33;5032418;56;1140998;-64
2023/08/13 07:35:52;;;;;;;4.50;3.30;;;;;;;22.83;100.00;100864.45;5060154;56;1140826;-65
2023/08/13 07:40:58;;;;;;;4.40;3.47;;;;;;;22.94;100.00;100876.09;5126695;55;1141080;-65
2023/08/13 07:46:04;;;;;;;4.25;3.33;;;;;;;22.76;100.00;100880.55;5123132;54;1140687;-64
2023/08/13 07:51:11;;;;;;;3.65;3.30;;;;;;;22.60;100.00;100888.84;5101332;55;1140989;-65
2023/08/13 07:56:17;;;;;;;7.33;3.22;;;;;;;22.55;100.00;100889.91;5132176;55;1141120;-64
2023/08/13 08:01:22;;;;;;;4.10;3.45;;;;;;;22.65;100.00;100893.14;5108189;56;1141140;-64
2023/08/13 08:06:28;;;;;;;4.50;3.30;;;;;;;22.78;100.00;100905.47;5178556;55;1140865;-64
2023/08/13 08:11:34;;;;;;;8.35;3.85;;;;;;;22.91;100.00;100901.61;5246903;54;1140791;-64
2023/08/13 08:16:40;;;;;;;4.08;3.22;;;;;;;23.07;100.00;100918.05;5257456;54;1140936;-64
2023/08/13 08:21:45;;;;;;;5.57;3.70;;;;;;;23.28;100.00;100912.68;5169868;55;1140914;-64
2023/08/13 08:26:51;;;;;;;5.85;3.83;;;;;;;23.57;100.00;100923.05;5188438;55;1140859;-64
2023/08/13 08:31:57;;;;;;;4.67;3.92;;;;;;;23.44;100.00;100914.29;5168541;55;1140927;-65
2023/08/13 08:37:04;;;;;;;3.98;3.17;;;;;;;23.58;100.00;100926.08;5168758;55;1141059;-64
2023/08/13 08:42:11;;;;;;;3.30;2.80;;;;;;;23.75;100.00;100923.42;5159548;55;1140748;-64
2023/08/13 08:47:19;;;;;;;4.55;2.37;;;;;;;23.69;100.00;100920.98;5168454;55;1141058;-64
2023/08/13 08:52:25;;;;;;;3.35;3.05;;;;;;;23.68;100.00;100921.20;5167595;55;1140953;-65
2023/08/13 08:57:30;;;;;;;6.23;2.77;;;;;;;23.47;100.00;100920.14;5124342;55;1140839;-66
2023/08/13 09:02:43;;;;;;;2.36;2.16;;;;;;;23.50;100.00;100926.52;5188864;55;1140854;-66
2023/08/13 09:07:44;;;;;;;2.83;2.62;;;;;;;23.34;100.00;100924.58;5167602;55;1141194;-65
2023/08/13 09:12:52;;;;;;;2.17;2.00;;;;;;;23.53;100.00;100928.00;5168600;56;1141138;-66
2023/08/13 09:18:02;;;;;;;2.47;2.25;;;;;;;23.80;100.00;100921.83;5126877;56;1140859;-64
2023/08/13 09:23:08;;;;;;;2.08;1.87;;;;;;;23.91;100.00;100905.58;5257098;54;1140850;-65
2023/08/13 09:28:15;;;;;;;2.10;1.82;;;;;;;24.09;99.06;100911.33;5243567;54;1141018;-65
2023/08/13 09:33:22;;;;;;;1.85;1.75;;;;;;;24.22;97.35;100913.28;5183936;54;1138803;-66
2023/08/13 09:38:27;;;;;;;1.75;1.60;;;;;;;24.33;96.78;100920.86;5277230;55;1139180;-65
2023/08/13 09:43:35;;;;;;;1.95;1.45;;;;;;;24.50;94.22;100922.21;5256848;54;1138669;-66
2023/08/13 09:48:43;;;;;;;1.35;1.20;;;;;;;24.57;92.83;100920.07;5256883;54;1138811;-65
2023/08/13 09:53:53;;;;;;;1.05;1.05;;;;;;;24.69;90.33;100931.46;5276519;54;1139101;-64
2023/08/13 09:59:00;;;;;;;1.40;1.40;;;;;;;24.84;90.82;100926.74;5257163;55;1138887;-66
2023/08/13 10:04:06;;;;;;;1.25;1.25;;;;;;;25.00;90.56;100931.00;5241029;54;1138719;-64
2023/08/13 10:09:12;;;;;;;3.37;1.10;;;;;;;25.00;90.56;100931.00;5188895;55;1138844;-64
2023/08/13 10:14:19;;;;;;;1.62;1.52;;;;;;;25.13;87.45;100921.55;5198088;55;1138832;-64
2023/08/13 10:19:31;;;;;;;1.35;1.12;;;;;;;25.17;84.42;100911.16;5179592;55;1138822;-65
2023/08/13 10:24:37;;;;;;;2.20;1.30;;;;;;;25.34;87.66;100930.56;5170468;55;1139056;-65
2023/08/13 10:29:43;;;;;;;3.60;1.47;;;;;;;25.56;86.52;100923.91;5132370;56;1138913;-65
2023/08/13 10:34:50;;;;;;;1.53;1.43;;;;;;;25.64;82.49;100932.41;5195949;55;1138916;-65
2023/08/13 10:40:01;;;;;;;1.30;1.30;;;;;;;25.47;82.44;100922.46;5168730;55;1138811;-64
2023/08/13 10:45:08;;;;;;;1.40;1.30;;;;;;;25.42;83.65;100919.01;5189205;55;1138772;-65
2023/08/13 10:50:38;;;;;;;2.25;1.60;;;;;;;25.59;82.58;100924.34;5144986;55;1138954;-65
2023/08/13 10:55:48;;;;;;;7.97;3.90;;;;;;;25.72;83.41;100915.41;5195848;55;1139049;-64
2023/08/13 11:01:00;;;;;;;1.20;1.20;;;;;;;25.92;79.29;100912.70;5257632;54;1139009;-65
2023/08/13 11:06:05;;;;;;;;;;;;;;;26.19;78.37;100922.47;5136489;55;1138617;-64
2023/08/13 11:11:12;;;;;;;3.30;1.40;;;;;;;26.20;79.83;100930.08;5277549;54;976059;-64
2023/08/13 11:16:18;;;;;;;1.12;1.02;;;;;;;26.28;80.37;100928.48;5257794;54;1136436;-64
2023/08/13 11:21:25;;;;;;;2.15;1.27;;;;;;;26.53;77.37;100931.39;5199728;55;1138805;-65
2023/08/13 11:26:34;;;;;;;3.30;1.42;;;;;;;26.65;72.41;100926.13;5273812;54;1138988;-65
2023/08/13 11:31:42;;;;;;;2.33;1.35;;;;;;;26.68;72.23;100922.47;5250104;54;1138733;-67
2023/08/13 11:36:55;;;;;;;7.80;1.70;;;;;;;26.70;69.33;100924.45;5188271;55;1138862;-64
2023/08/13 11:42:11;;;;;;;2.08;1.25;;;;;;;26.75;69.48;100920.55;5107145;55;1138806;-65
2023/08/13 11:47:28;;;;;;;2.42;1.12;;;;;;;26.93;71.06;100919.84;5063210;56;1138924;-64
2023/08/13 11:52:34;;;;;;;0.95;0.80;;;;;;;27.06;69.19;100916.25;5170661;55;1138631;-65
2023/08/13 11:57:41;;;;;;;1.15;1.00;;;;;;;27.19;68.26;100911.58;5173445;55;1138800;-64
2023/08/13 12:02:49;;;;;;;5.03;1.72;;;;;;;27.41;69.03;100916.67;5189494;55;1138876;-64
2023/08/13 12:07:57;;;;;;;3.67;1.90;;;;;;;27.51;64.98;100913.77;5202902;54;1138866;-64
2023/08/13 12:13:04;;;;;;;1.40;1.30;;;;;;;27.42;64.25;100924.61;5236744;54;1138594;-64
2023/08/13 12:18:09;;;;;;;1.05;1.05;;;;;;;27.44;66.37;100916.23;5275931;54;1138856;-64
2023/08/13 12:23:15;;;;;;;1.77;1.30;;;;;;;27.55;66.58;100913.63;5251781;54;1138859;-64
2023/08/13 12:28:21;;;;;;;1.82;1.20;;;;;;;27.68;62.07;100919.52;5183478;55;1138623;-66
2023/08/13 12:33:27;;;;;;;1.10;1.00;;;;;;;27.75;61.46;100912.16;5169698;55;1138783;-65
2023/08/13 12:38:33;;;;;;;1.87;1.32;;;;;;;27.76;61.32;100907.55;5190568;55;1138614;-65
2023/08/13 12:43:39;;;;;;;2.20;1.50;;;;;;;27.66;59.47;100906.67;5191214;54;1138865;-65
2023/08/13 12:48:45;;;;;;;1.05;1.00;;;;;;;27.83;62.42;100906.95;5169243;55;1138799;-65
2023/08/13 12:53:51;;;;;;;11.15;1.15;;;;;;;27.96;58.34;100906.83;5241872;54;1138891;-65
2023/08/13 12:58:56;;;;;;;7.20;1.47;;;;;;;28.11;58.37;100896.43;5215914;55;1140666;-65
2023/08/13 13:04:02;;;;;;;1.95;1.37;;;;;;;28.11;58.37;100896.43;5173662;55;1138885;-65
2023/08/13 13:09:08;;;;;;;2.00;1.25;;;;;;;28.26;57.38;100909.73;5194883;55;1138718;-66
2023/08/13 13:14:14;;;;;;;2.22;1.35;;;;;;;28.25;54.46;100903.45;5251858;54;1138918;-65
2023/08/13 13:19:19;;;;;;;2.50;1.40;;;;;;;28.17;57.37;100913.22;5257049;54;1138712;-65
2023/08/13 13:24:25;;;;;;;5.17;1.50;;;;;;;28.23;56.24;100910.17;5257356;54;1139069;-66
2023/08/13 13:29:31;;;;;;;1.42;1.05;;;;;;;28.08;52.27;100911.86;5277912;54;1138764;-65
2023/08/13 13:34:37;;;;;;;3.92;1.40;;;;;;;27.98;55.25;100903.36;5271934;55;1139019;-68
2023/08/13 13:39:43;;;;;;;2.10;1.57;;;;;;;28.05;56.51;100897.87;5193811;55;1138938;-66
2023/08/13 13:44:48;;;;;;;2.25;1.20;;;;;;;28.11;54.83;100897.78;5206554;55;1139149;-66
2023/08/13 13:49:54;;;;;;;1.80;1.42;;;;;;;28.23;55.54;100899.29;5239290;54;1138885;-66
2023/08/13 13:55:00;;;;;;;2.95;0.98;;;;;;;28.34;55.91;100896.64;5220939;55;1138923;-65
2023/08/13 14:00:06;;;;;;;3.52;1.60;;;;;;;28.42;54.97;100890.05;5121507;55;1138968;-66
2023/08/13 14:05:13;;;;;;;2.20;1.35;;;;;;;28.43;55.79;100893.61;5106449;56;1138747;-66
2023/08/13 14:10:19;;;;;;;2.17;1.20;;;;;;;28.43;53.69;100890.36;5193046;55;1138831;-66
2023/08/13 14:15:24;;;;;;;4.05;1.85;;;;;;;28.44;52.19;100891.19;5195420;55;1138841;-66
2023/08/13 14:20:30;;;;;;;1.87;1.57;;;;;;;28.54;52.66;100898.31;5234986;55;1138983;-66
2023/08/13 14:25:35;;;;;;;3.02;1.77;;;;;;;28.54;50.79;100892.87;5111341;56;1138862;-65
2023/08/13 14:30:41;;;;;;;2.83;1.33;;;;;;;28.55;50.77;100885.84;5110435;56;1138994;-66
2023/08/13 14:35:47;;;;;;;3.47;1.60;;;;;;;28.55;49.41;100890.45;5278822;54;1139038;-66
2023/08/13 14:40:54;;;;;;;3.50;1.27;;;;;;;28.44;49.29;100889.30;5257688;55;1139190;-66
2023/08/13 14:46:00;;;;;;;2.27;1.27;;;;;;;28.44;50.73;100891.19;5217874;54;1139033;-65
2023/08/13 14:51:05;;;;;;;3.55;1.90;;;;;;;28.38;49.80;100885.31;5008893;56;1138769;-67
2023/08/13 14:56:11;;;;;;;3.67;1.72;;;;;;;28.15;49.91;100884.58;5079199;55;1138874;-66
2023/08/13 15:01:16;;;;;;;2.25;1.42;;;;;;;28.14;51.65;100874.23;5045032;56;1138561;-67
2023/08/13 15:06:22;;;;;;;2.37;1.50;;;;;;;28.27;51.83;100868.67;5091542;55;1138794;-68
2023/08/13 15:11:28;;;;;;;5.28;1.70;;;;;;;28.36;49.74;100866.49;5050470;56;1138635;-66
2023/08/13 15:16:33;;;;;;;6.75;1.42;;;;;;;28.10;50.56;100862.69;5051845;56;1138689;-66
2023/08/13 15:21:39;;;;;;;2.43;1.33;;;;;;;28.05;51.18;100859.27;5095614;55;1138950;-67
2023/08/13 15:26:45;;;;;;;1.72;1.42;;;;;;;28.19;50.38;100855.91;4975299;56;1138745;-66
2023/08/13 15:31:50;;;;;;;7.20;1.47;;;;;;;28.28;52.33;100859.45;4967327;56;1138917;-66
2023/08/13 15:36:56;;;;;;;2.02;1.52;;;;;;;28.41;53.01;100857.13;4989455;57;1139333;-66
2023/08/13 15:42:02;;;;;;;2.17;1.50;;;;;;;28.55;53.19;100866.79;5069081;56;1138677;-66
2023/08/13 15:47:07;;;;;;;6.78;1.52;;;;;;;28.57;50.88;100857.04;4968889;56;1138641;-66
2023/08/13 15:52:13;;;;;;;4.10;1.70;;;;;;;28.52;50.89;100863.69;5074055;56;1138829;-66
2023/08/13 15:57:19;;;;;;;7.72;2.15;;;;;;;28.56;51.74;100855.38;5040288;57;1138847;-66
2023/08/13 16:02:25;;;;;;;6.78;2.00;;;;;;;28.49;51.81;100852.72;4989229;57;1138720;-66
2023/08/13 16:07:31;;;;;;;4.43;2.03;;;;;;;28.59;53.12;100849.45;5025024;56;1138795;-66
2023/08/13 16:12:37;;;;;;;1.95;1.40;;;;;;;28.63;51.67;100854.22;5044929;56;1138838;-65
2023/08/13 16:17:44;;;;;;;2.42;1.87;;;;;;;28.61;52.73;100848.70;5025674;56;1138791;-66
2023/08/13 16:22:50;;;;;;;3.33;1.70;;;;;;;28.58;52.62;100850.50;5016273;56;1138897;-66
2023/08/13 16:27:57;;;;;;;1.97;1.43;;;;;;;28.39;52.00;100851.08;5038168;56;1138849;-65
2023/08/13 16:33:02;;;;;;;1.60;1.50;;;;;;;28.34;51.94;100847.67;4947150;57;1138868;-66
2023/08/13 16:38:08;;;;;;;2.27;1.22;;;;;;;28.28;51.25;100845.84;4980557;57;1138883;-66
2023/08/13 16:43:14;;;;;;;6.60;1.70;;;;;;;28.19;52.60;100849.11;4963445;56;1139039;-66
2023/08/13 16:48:19;;;;;;;7.05;2.60;;;;;;;28.11;53.35;100851.55;5018211;56;1138822;-66
2023/08/13 16:53:25;;;;;;;3.77;2.37;;;;;;;27.99;53.86;100851.48;4969257;56;1138792;-66
2023/08/13 16:58:30;;;;;;;8.00;2.43;;;;;;;27.98;54.84;100851.17;5151934;55;1139009;-66
2023/08/13 17:03:36;;;;;;;7.22;2.75;;;;;;;27.98;54.69;100855.78;5047863;56;1138803;-66
2023/08/13 17:08:42;;;;;;;8.15;3.27;;;;;;;27.96;55.25;100851.09;5113899;55;1138762;-66
2023/08/13 17:13:47;;;;;;;12.40;3.87;;;;;;;28.02;56.79;100850.20;5169430;55;1138862;-66
2023/08/13 17:18:53;;;;;;;7.65;4.53;;;;;;;27.99;57.68;100855.55;5189510;55;1140711;-66
2023/08/13 17:23:58;;;;;;;10.85;5.58;;;;;;;27.95;57.77;100854.89;5169697;55;1138614;-66
2023/08/13 17:29:04;;;;;;;11.97;6.15;;;;;;;27.86;57.56;100856.22;5169214;55;1140826;-66
2023/08/13 17:34:11;;;;;;;20.43;8.63;;;;;;;27.76;58.71;100859.46;5188916;55;1140772;-66
2023/08/13 17:39:18;;;;;;;21.60;4.95;;;;;;;27.72;61.02;100860.13;5169103;55;1140984;-65
2023/08/13 17:44:23;;;;;;;15.63;5.30;;;;;;;27.60;60.87;100853.23;5092686;55;1141055;-65
2023/08/13 17:49:29;;;;;;;26.77;6.57;;;;;;;27.43;61.93;100862.42;5078126;56;1150530;-65
2023/08/13 17:54:34;;;;;;;39.48;21.90;;;;;;;27.34;62.83;100865.13;5125725;56;1140921;-66
2023/08/13 17:59:40;;;;;;;29.55;7.90;;;;;;;27.30;62.97;100871.52;5244946;54;1142878;-66
2023/08/13 18:04:46;;;;;;;18.30;6.20;;;;;;;27.23;62.99;100865.81;5133427;55;1141127;-66
2023/08/13 18:09:51;;;;;;;12.93;3.92;;;;;;;27.09;63.60;100873.73;5278073;54;1140888;-66
2023/08/13 18:14:57;;;;;;;30.95;4.37;;;;;;;26.85;63.91;100876.67;5257410;54;1140831;-66
2023/08/13 18:20:05;;;;;;;26.77;4.03;;;;;;;26.70;64.81;100880.20;5228408;54;1140672;-66
2023/08/13 18:25:12;;;;;;;26.87;4.10;;;;;;;26.59;65.47;100881.68;5258270;54;1140984;-66
2023/08/13 18:30:18;;;;;;;27.67;4.12;;;;;;;26.42;65.69;100884.06;5225658;55;1140920;-65
2023/08/13 18:35:24;;;;;;;53.78;16.65;;;;;;;26.27;66.80;100891.07;5257319;54;1140782;-65
2023/08/13 18:40:29;;;;;;;44.73;18.47;;;;;;;26.18;67.25;100898.27;5220178;55;1143275;-66
2023/08/13 18:45:35;;;;;;;49.88;26.10;;;;;;;26.04;68.28;100898.82;5213381;55;1143078;-66
2023/08/13 18:50:40;;;;;;;45.50;23.50;;;;;;;25.95;69.37;100890.61;5190506;55;1143082;-66
2023/08/13 18:55:49;;;;;;;32.38;13.15;;;;;;;25.85;69.73;100902.38;5137613;55;1143056;-65
2023/08/13 19:00:55;;;;;;;20.27;7.58;;;;;;;25.79;70.96;100910.84;5193962;55;1142786;-66
2023/08/13 19:06:01;;;;;;;26.57;8.65;;;;;;;25.66;71.29;100906.78;5169054;54;1140711;-65
2023/08/13 19:11:06;;;;;;;21.07;8.85;;;;;;;25.52;72.22;100914.01;5196756;55;1140845;-65
2023/08/13 19:16:12;;;;;;;45.03;14.78;;;;;;;25.40;72.71;100917.02;5278303;54;1140677;-65
2023/08/13 19:21:18;;;;;;;26.80;13.60;;;;;;;25.14;73.02;100925.94;5191948;55;1142759;-66
2023/08/13 19:26:24;;;;;;;38.13;16.40;;;;;;;24.97;74.35;100925.98;5233527;55;1142753;-66
2023/08/13 19:31:30;;;;;;;30.53;14.93;;;;;;;24.75;75.28;100927.94;5253887;54;1142921;-65
2023/08/13 19:36:36;;;;;;;31.97;14.25;;;;;;;24.64;75.61;100927.16;5249471;54;1143041;-65
2023/08/13 19:41:41;;;;;;;36.42;13.75;;;;;;;24.42;76.38;100930.50;5207299;55;1142822;-66
2023/08/13 19:46:47;;;;;;;21.12;10.60;;;;;;;24.39;77.29;100931.41;5241330;54;1142937;-66
2023/08/13 19:51:53;;;;;;;29.45;15.35;;;;;;;24.45;78.54;100933.30;5239596;55;1143189;-65
2023/08/13 19:56:59;;;;;;;33.35;17.98;;;;;;;24.45;78.54;100933.30;5082268;56;1143048;-65
2023/08/13 20:02:07;;;;;;;33.98;17.90;;;;;;;24.47;78.67;100925.82;5198126;55;1143091;-66
2023/08/13 20:07:12;;;;;;;43.25;20.23;;;;;;;24.48;79.04;100922.92;5276496;54;1142815;-65
2023/08/13 20:12:18;;;;;;;35.55;18.65;;;;;;;24.50;79.56;100928.13;5236536;54;1143087;-64
2023/08/13 20:17:24;;;;;;;35.98;18.07;;;;;;;24.36;79.62;100928.58;5254053;54;1142776;-64
2023/08/13 20:22:29;;;;;;;33.53;16.65;;;;;;;24.33;80.38;100934.38;5257444;54;1142933;-65
2023/08/13 20:27:35;;;;;;;33.42;16.15;;;;;;;24.29;80.17;100924.18;5203882;55;1142932;-65
2023/08/13 20:32:42;;;;;;;29.57;16.60;;;;;;;24.18;80.06;100922.30;5172330;54;1143243;-65
2023/08/13 20:37:47;;;;;;;32.45;12.35;;;;;;;24.10;81.06;100929.22;5187058;55;1143025;-67
2023/08/13 20:42:53;;;;;;;22.20;9.00;;;;;;;24.03;81.23;100915.33;5188155;55;1143041;-66
2023/08/13 20:47:59;;;;;;;14.13;6.45;;;;;;;23.89;81.81;100925.20;5212212;55;1140830;-66
2023/08/13 20:53:05;;;;;;;8.30;3.85;;;;;;;23.89;82.47;100923.02;5164536;54;1140806;-66
2023/08/13 20:58:11;;;;;;;8.25;4.17;;;;;;;23.84;82.63;100924.95;5221192;54;1138676;-65
2023/08/13 21:03:16;;;;;;;10.58;3.72;;;;;;;23.80;82.99;100923.69;5169633;54;1138592;-65
2023/08/13 21:08:22;;;;;;;14.50;3.02;;;;;;;23.77;83.29;100925.42;5177264;55;1140874;-66
2023/08/13 21:13:28;;;;;;;11.80;3.30;;;;;;;23.79;84.08;100928.25;5229345;54;1140941;-66
2023/08/13 21:18:33;;;;;;;10.63;4.10;;;;;;;23.76;83.47;100924.59;5263483;54;1140943;-65
2023/08/13 21:23:39;;;;;;;7.72;3.45;;;;;;;23.77;83.27;100924.07;5156450;55;1140755;-65
2023/08/13 21:28:44;;;;;;;7.28;3.62;;;;;;;23.61;82.22;100925.70;5164179;55;1138901;-65
2023/08/13 21:33:50;;;;;;;17.85;4.92;;;;;;;23.32;82.13;100923.42;5189261;55;1139214;-65
2023/08/13 21:38:57;;;;;;;15.57;3.67;;;;;;;23.28;83.32;100930.22;5169226;55;1140738;-65
2023/08/13 21:44:02;;;;;;;21.97;3.40;;;;;;;23.24;83.09;100924.04;5168323;55;1140913;-66
2023/08/13 21:49:08;;;;;;;16.10;3.35;;;;;;;23.10;83.74;100921.72;5188025;55;1140926;-65
2023/08/13 21:54:13;;;;;;;13.05;3.27;;;;;;;22.97;84.60;100918.87;5165230;56;1140761;-65
2023/08/13 21:59:19;;;;;;;17.87;4.20;;;;;;;22.85;85.08;100920.39;5165368;55;1140685;-65
2023/08/13 22:04:24;;;;;;;16.90;3.90;;;;;;;22.77;85.40;100928.91;5210772;54;1140905;-66
2023/08/13 22:09:30;;;;;;;13.72;4.60;;;;;;;22.79;86.29;100922.81;5226187;54;1140800;-64
2023/08/13 22:14:36;;;;;;;6.58;3.65;;;;;;;22.78;86.18;100937.32;5168211;55;1140628;-65
2023/08/13 22:19:59;;;;;;;8.53;4.03;;;;;;;22.69;85.87;100941.13;5165434;55;1138834;-65
2023/08/13 22:25:05;;;;;;;11.97;4.25;;;;;;;22.50;86.52;100943.03;5189618;55;1138622;-64
2023/08/13 22:30:12;;;;;;;17.75;4.90;;;;;;;22.48;87.47;100945.59;5179622;55;1140945;-65
2023/08/13 22:35:17;;;;;;;15.63;4.35;;;;;;;22.51;87.90;100935.27;5168025;56;1140893;-65
2023/08/13 22:40:23;;;;;;;15.46;3.80;;;;;;;22.55;87.86;100939.27;5176196;55;1141012;-66
2023/08/13 22:45:29;;;;;;;8.50;2.83;;;;;;;22.55;87.82;100935.74;5182425;55;1140861;-66
2023/08/13 22:50:35;;;;;;;14.23;3.65;;;;;;;22.43;86.88;100928.13;5169202;55;1139095;-64
2023/08/13 22:55:40;;;;;;;8.13;3.20;;;;;;;22.43;86.88;100928.13;5169399;55;1140961;-64
2023/08/13 23:00:46;;;;;;;18.80;3.62;;;;;;;22.37;87.13;100936.95;5189630;55;1138607;-65